createdAt,value
2018-11-10T00:00:23.385Z,11.96
2018-11-10T00:02:53.278Z,11.94
2018-11-10T00:05:23.690Z,11.92
2018-11-10T00:07:53.321Z,11.89
2018-11-10T00:10:22.922Z,11.89
2018-11-10T00:12:52.491Z,11.86
2018-11-10T00:15:22.033Z,11.83
2018-11-10T00:17:51.526Z,11.83
2018-11-10T00:20:21.074Z,11.82
2018-11-10T00:22:50.595Z,11.79
2018-11-10T00:25:20.167Z,11.77
2018-11-10T00:27:49.706Z,11.76
2018-11-10T00:30:19.788Z,11.75
2018-11-10T00:32:49.434Z,11.23
2018-11-10T00:35:18.972Z,11.73
2018-11-10T00:37:48.586Z,11.73
2018-11-10T00:40:18.194Z,11.72
2018-11-10T00:42:47.734Z,11.72
2018-11-10T00:45:17.302Z,11.72
2018-11-10T00:47:46.902Z,11.69
2018-11-10T00:50:16.469Z,11.68
2018-11-10T00:52:46.038Z,11.66
2018-11-10T00:55:15.564Z,11.65
2018-11-10T00:57:45.112Z,11.64
2018-11-10T01:00:14.731Z,11.62
2018-11-10T01:02:45.051Z,11.60
2018-11-10T01:05:14.619Z,11.58
2018-11-10T01:07:44.166Z,11.56
2018-11-10T01:10:14.300Z,11.54
2018-11-10T01:12:44.074Z,11.51
2018-11-10T01:15:14.977Z,11.49
2018-11-10T01:17:44.933Z,11.44
2018-11-10T01:20:14.928Z,11.40
2018-11-10T01:22:44.499Z,11.36
2018-11-10T01:25:14.083Z,11.27
2018-11-10T01:27:43.630Z,11.25
2018-11-10T01:30:14.835Z,11.22
2018-11-10T01:32:45.049Z,11.16
2018-11-10T01:35:15.215Z,11.16
2018-11-10T01:37:44.806Z,11.15
2018-11-10T01:40:14.882Z,11.13
2018-11-10T01:42:44.723Z,11.12
2018-11-10T01:45:16.466Z,11.13
2018-11-10T01:47:46.615Z,11.11
2018-11-10T01:50:16.246Z,11.11
2018-11-10T01:52:45.790Z,11.11
2018-11-10T01:55:15.309Z,11.10
2018-11-10T01:57:44.879Z,11.10
2018-11-10T02:00:17.768Z,11.10
2018-11-10T02:02:47.877Z,11.09
2018-11-10T02:05:17.843Z,11.08
2018-11-10T02:07:47.411Z,11.07
2018-11-10T02:10:17.071Z,11.07
2018-11-10T02:12:46.680Z,11.07
2018-11-10T02:15:17.135Z,11.05
2018-11-10T02:17:46.704Z,11.05
2018-11-10T02:20:16.404Z,11.05
2018-11-10T02:22:46.119Z,11.06
2018-11-10T02:25:15.703Z,11.05
2018-11-10T02:27:45.294Z,11.06
2018-11-10T02:30:14.861Z,11.07
2018-11-10T02:32:44.457Z,11.07
2018-11-10T02:35:14.011Z,11.07
2018-11-10T02:37:43.584Z,11.06
2018-11-10T02:40:14.690Z,11.07
2018-11-10T02:42:44.659Z,11.06
2018-11-10T02:45:15.180Z,11.05
2018-11-10T02:47:45.438Z,11.02
2018-11-10T02:50:15.004Z,10.96
2018-11-10T02:52:44.672Z,10.71
2018-11-10T02:55:14.190Z,10.68
2018-11-10T02:57:43.850Z,10.63
2018-11-10T03:00:14.435Z,9.91
2018-11-10T03:02:44.018Z,10.71
2018-11-10T03:05:13.538Z,10.74
2018-11-10T03:07:43.091Z,10.76
2018-11-10T03:10:12.982Z,10.78
2018-11-10T03:12:42.598Z,10.78
2018-11-10T03:15:12.838Z,10.76
2018-11-10T03:17:42.341Z,10.76
2018-11-10T03:20:13.948Z,10.75
2018-11-10T03:22:43.855Z,10.73
2018-11-10T03:25:13.446Z,10.73
2018-11-10T03:27:42.971Z,10.70
2018-11-10T03:30:12.555Z,10.69
2018-11-10T03:32:42.148Z,10.67
2018-11-10T03:35:11.687Z,10.65
2018-11-10T03:37:41.683Z,10.62
2018-11-10T03:40:12.230Z,10.60
2018-11-10T03:42:41.851Z,10.57
2018-11-10T03:45:12.382Z,10.54
2018-11-10T03:47:42.082Z,10.50
2018-11-10T03:50:12.210Z,10.40
2018-11-10T03:52:42.031Z,10.36
2018-11-10T03:55:11.633Z,10.32
2018-11-10T03:57:41.238Z,10.28
2018-11-10T04:00:12.788Z,10.22
2018-11-10T04:02:43.765Z,10.19
2018-11-10T04:05:13.927Z,10.13
2018-11-10T04:07:44.555Z,10.08
2018-11-10T04:10:14.862Z,10.03
2018-11-10T04:12:44.401Z,9.98
2018-11-10T04:15:13.968Z,9.92
2018-11-10T04:17:43.494Z,9.86
2018-11-10T04:20:13.035Z,9.81
2018-11-10T04:22:42.532Z,9.75
2018-11-10T04:25:12.431Z,9.71
2018-11-10T04:27:42.028Z,9.66
2018-11-10T04:30:12.150Z,9.61
2018-11-10T04:32:41.674Z,9.57
2018-11-10T04:35:11.267Z,9.50
2018-11-10T04:37:40.784Z,9.46
2018-11-10T04:40:10.907Z,9.42
2018-11-10T04:42:40.836Z,9.37
2018-11-10T04:45:11.614Z,9.32
2018-11-10T04:47:41.100Z,9.28
2018-11-10T04:50:11.610Z,9.22
2018-11-10T04:52:41.603Z,9.17
2018-11-10T04:57:46.832Z,9.07
2018-11-10T05:00:16.634Z,9.05
2018-11-10T05:02:46.493Z,9.03
2018-11-10T05:05:16.063Z,9.00
2018-11-10T05:07:45.609Z,8.94
2018-11-10T05:10:15.142Z,8.90
2018-11-10T05:12:44.656Z,8.85
2018-11-10T05:15:14.439Z,8.81
2018-11-10T05:17:43.958Z,8.79
2018-11-10T05:20:13.606Z,8.79
2018-11-10T05:22:43.124Z,8.78
2018-11-10T05:25:12.695Z,8.79
2018-11-10T05:27:42.238Z,8.76
2018-11-10T05:30:12.145Z,8.77
2018-11-10T05:32:41.726Z,8.78
2018-11-10T05:35:11.249Z,8.78
2018-11-10T05:37:40.808Z,8.80
2018-11-10T05:40:11.205Z,8.83
2018-11-10T05:42:41.215Z,8.86
2018-11-10T05:45:11.129Z,8.90
2018-11-10T05:47:40.655Z,8.93
2018-11-10T05:50:10.611Z,8.92
2018-11-10T05:52:40.169Z,8.91
2018-11-10T05:55:09.900Z,8.92
2018-11-10T05:57:39.954Z,8.93
2018-11-10T06:00:11.660Z,8.94
2018-11-10T06:02:41.270Z,8.93
2018-11-10T06:05:11.255Z,8.98
2018-11-10T06:07:40.841Z,9.03
2018-11-10T06:10:11.578Z,9.09
2018-11-10T06:12:41.286Z,9.17
2018-11-10T06:15:11.035Z,9.26
2018-11-10T06:17:40.787Z,9.35
2018-11-10T06:20:12.110Z,9.48
2018-11-10T06:22:41.674Z,9.59
2018-11-10T06:25:11.816Z,9.69
2018-11-10T06:27:41.393Z,9.79
2018-11-10T06:30:11.807Z,9.91
2018-11-10T06:32:41.471Z,9.99
2018-11-10T06:35:11.330Z,10.05
2018-11-10T06:37:41.514Z,10.11
2018-11-10T06:40:12.690Z,10.22
2018-11-10T06:42:42.941Z,10.27
2018-11-10T06:45:12.472Z,10.29
2018-11-10T06:47:42.071Z,10.37
2018-11-10T06:50:12.041Z,10.47
2018-11-10T06:52:41.653Z,10.61
2018-11-10T06:55:11.796Z,10.74
2018-11-10T06:57:41.358Z,10.89
2018-11-10T07:00:12.860Z,11.03
2018-11-10T07:02:42.592Z,11.17
2018-11-10T07:05:12.703Z,10.49
2018-11-10T07:07:42.516Z,11.21
2018-11-10T07:10:12.084Z,11.30
2018-11-10T07:12:41.652Z,11.35
2018-11-10T07:15:11.256Z,11.41
2018-11-10T07:17:40.914Z,11.50
2018-11-10T07:20:10.472Z,11.59
2018-11-10T07:22:39.975Z,11.57
2018-11-10T07:25:09.888Z,11.68
2018-11-10T07:27:39.398Z,11.76
2018-11-10T07:30:11.538Z,11.88
2018-11-10T07:32:41.431Z,11.96
2018-11-10T07:35:11.904Z,12.07
2018-11-10T07:37:41.605Z,12.18
2018-11-10T07:40:12.537Z,12.30
2018-11-10T07:42:42.072Z,12.37
2018-11-10T07:45:13.528Z,12.43
2018-11-10T07:47:43.672Z,12.55
2018-11-10T07:50:13.375Z,12.64
2018-11-10T07:52:43.201Z,12.74
2018-11-10T07:55:14.065Z,12.86
2018-11-10T07:57:43.731Z,12.97
2018-11-10T08:02:50.026Z,13.10
2018-11-10T08:05:19.540Z,13.18
2018-11-10T08:07:49.109Z,13.22
2018-11-10T08:10:18.695Z,13.26
2018-11-10T08:12:48.208Z,13.30
2018-11-10T08:15:18.195Z,13.34
2018-11-10T08:17:47.747Z,13.44
2018-11-10T08:20:17.297Z,13.51
2018-11-10T08:22:46.843Z,13.61
2018-11-10T08:25:16.537Z,13.67
2018-11-10T08:27:46.056Z,13.71
2018-11-10T08:30:15.842Z,13.78
2018-11-10T08:32:45.494Z,13.87
2018-11-10T08:35:15.620Z,13.91
2018-11-10T08:37:45.130Z,13.99
2018-11-10T08:40:15.823Z,14.08
2018-11-10T08:42:45.370Z,14.16
2018-11-10T08:45:15.721Z,14.20
2018-11-10T08:47:45.636Z,14.25
2018-11-10T08:50:16.248Z,14.24
2018-11-10T08:52:45.813Z,14.30
2018-11-10T08:55:15.387Z,14.34
2018-11-10T08:57:45.100Z,14.38
2018-11-10T09:00:14.548Z,14.39
2018-11-10T09:02:44.148Z,14.46
2018-11-10T09:05:13.796Z,14.51
2018-11-10T09:07:43.531Z,14.54
2018-11-10T09:10:14.246Z,14.53
2018-11-10T09:12:43.890Z,14.63
2018-11-10T09:15:14.791Z,14.65
2018-11-10T09:17:44.875Z,14.72
2018-11-10T09:20:15.472Z,14.78
2018-11-10T09:22:45.335Z,14.84
2018-11-10T09:25:16.156Z,14.83
2018-11-10T09:27:45.797Z,14.90
2018-11-10T09:30:16.581Z,14.96
2018-11-10T09:32:46.172Z,15.01
2018-11-10T09:35:16.059Z,15.06
2018-11-10T09:37:45.638Z,15.14
2018-11-10T09:40:16.349Z,14.96
2018-11-10T09:42:46.112Z,15.00
2018-11-10T09:45:16.547Z,15.08
2018-11-10T09:47:46.087Z,15.10
2018-11-10T09:50:18.109Z,15.16
2018-11-10T09:52:47.862Z,15.20
2018-11-10T09:55:17.944Z,15.21
2018-11-10T09:57:47.599Z,15.22
2018-11-10T10:00:18.570Z,15.21
2018-11-10T10:02:48.552Z,15.28
2018-11-10T10:05:17.754Z,15.28
2018-11-10T10:07:47.358Z,15.16
2018-11-10T10:10:17.875Z,15.18
2018-11-10T10:12:47.771Z,15.25
2018-11-10T10:15:18.380Z,15.28
2018-11-10T10:17:48.084Z,15.35
2018-11-10T10:20:19.050Z,15.37
2018-11-10T10:22:49.392Z,15.42
2018-11-10T10:25:19.564Z,15.45
2018-11-10T10:27:49.942Z,15.47
2018-11-10T10:30:24.660Z,15.47
2018-11-10T10:32:54.338Z,15.49
2018-11-10T10:35:24.038Z,15.52
2018-11-10T10:37:53.702Z,15.57
2018-11-10T10:40:23.226Z,15.61
2018-11-10T10:42:52.885Z,15.65
2018-11-10T10:45:23.690Z,15.66
2018-11-10T10:47:53.299Z,15.68
2018-11-10T10:50:23.563Z,15.68
2018-11-10T10:52:53.112Z,15.73
2018-11-10T10:55:22.667Z,15.74
2018-11-10T10:57:52.231Z,15.75
2018-11-10T11:00:26.754Z,15.76
2018-11-10T11:02:58.526Z,15.79
2018-11-10T11:05:33.078Z,15.81
2018-11-10T11:08:02.663Z,15.82
2018-11-10T11:10:32.226Z,15.86
2018-11-10T11:13:01.787Z,15.88
2018-11-10T11:15:31.430Z,15.89
2018-11-10T11:18:01.013Z,15.88
2018-11-10T11:20:30.539Z,15.91
2018-11-10T11:23:00.109Z,15.92
2018-11-10T11:25:29.671Z,15.91
2018-11-10T11:27:59.233Z,15.89
2018-11-10T11:30:28.803Z,15.87
2018-11-10T11:32:58.344Z,15.87
2018-11-10T11:35:27.963Z,15.88
2018-11-10T11:37:57.444Z,15.90
2018-11-10T11:40:26.971Z,15.90
2018-11-10T11:42:56.546Z,15.91
2018-11-10T11:45:26.052Z,15.88
2018-11-10T11:47:55.607Z,15.84
2018-11-10T11:50:25.175Z,15.79
2018-11-10T11:52:54.756Z,15.80
2018-11-10T11:55:24.304Z,15.84
2018-11-10T11:57:53.957Z,15.80
2018-11-10T12:00:23.403Z,15.84
2018-11-10T12:02:52.991Z,15.13
2018-11-10T12:05:22.517Z,15.89
2018-11-10T12:07:52.077Z,15.92
2018-11-10T12:10:21.656Z,15.93
2018-11-10T12:12:51.173Z,15.94
2018-11-10T12:15:20.799Z,15.97
2018-11-10T12:17:50.315Z,15.97
2018-11-10T12:20:19.892Z,15.97
2018-11-10T12:22:49.447Z,16.01
2018-11-10T12:25:18.982Z,16.05
2018-11-10T12:27:48.595Z,16.04
2018-11-10T12:30:18.149Z,15.33
2018-11-10T12:32:47.671Z,16.07
2018-11-10T12:35:17.255Z,16.09
2018-11-10T12:37:46.808Z,16.07
2018-11-10T12:40:16.381Z,16.09
2018-11-10T12:42:45.923Z,16.07
2018-11-10T12:45:15.498Z,16.08
2018-11-10T12:47:45.083Z,16.11
2018-11-10T12:50:15.392Z,16.14
2018-11-10T12:52:45.666Z,16.14
2018-11-10T12:55:16.132Z,16.15
2018-11-10T12:57:46.262Z,16.13
2018-11-10T13:00:16.994Z,16.12
2018-11-10T13:02:46.764Z,16.12
2018-11-10T13:05:16.310Z,16.12
2018-11-10T13:07:46.808Z,16.12
2018-11-10T13:10:16.360Z,16.12
2018-11-10T13:12:45.980Z,15.37
2018-11-10T13:15:15.521Z,16.12
2018-11-10T13:17:45.129Z,16.13
2018-11-10T13:20:15.571Z,16.12
2018-11-10T13:22:45.217Z,16.11
2018-11-10T13:25:15.150Z,16.10
2018-11-10T13:27:44.739Z,16.08
2018-11-10T13:30:15.173Z,16.08
2018-11-10T13:32:44.828Z,16.04
2018-11-10T13:35:14.399Z,16.03
2018-11-10T13:37:43.948Z,16.02
2018-11-10T13:40:13.464Z,16.01
2018-11-10T13:42:43.046Z,15.98
2018-11-10T13:45:13.663Z,15.94
2018-11-10T13:47:43.243Z,15.94
2018-11-10T13:50:13.019Z,15.94
2018-11-10T13:52:43.342Z,15.93
2018-11-10T13:55:13.214Z,15.91
2018-11-10T13:57:42.735Z,15.90
2018-11-10T14:00:16.361Z,15.89
2018-11-10T14:02:45.914Z,15.88
2018-11-10T14:05:15.841Z,15.86
2018-11-10T14:07:45.370Z,15.84
2018-11-10T14:10:15.983Z,15.80
2018-11-10T14:12:46.444Z,15.75
2018-11-10T14:15:15.992Z,15.71
2018-11-10T14:17:45.616Z,15.68
2018-11-10T14:20:16.084Z,15.68
2018-11-10T14:22:46.421Z,15.66
2018-11-10T14:25:16.572Z,15.64
2018-11-10T14:27:46.399Z,15.60
2018-11-10T14:30:17.108Z,15.57
2018-11-10T14:32:47.142Z,15.52
2018-11-10T14:35:16.698Z,15.48
2018-11-10T14:37:46.332Z,15.43
2018-11-10T14:40:17.096Z,15.38
2018-11-10T14:42:46.867Z,15.31
2018-11-10T14:45:17.774Z,15.27
2018-11-10T14:47:47.576Z,15.20
2018-11-10T14:50:17.894Z,15.13
2018-11-10T14:52:47.645Z,15.08
2018-11-10T14:55:17.072Z,15.01
2018-11-10T14:57:46.599Z,14.93
2018-11-10T15:00:18.034Z,14.87
2018-11-10T15:02:47.546Z,14.79
2018-11-10T15:05:17.098Z,14.72
2018-11-10T15:07:46.686Z,14.64
2018-11-10T15:10:17.002Z,14.58
2018-11-10T15:12:46.830Z,14.50
2018-11-10T15:15:17.423Z,14.42
2018-11-10T15:17:47.312Z,14.33
2018-11-10T15:20:17.915Z,14.27
2018-11-10T15:22:47.552Z,14.21
2018-11-10T15:25:18.610Z,14.13
2018-11-10T15:27:48.216Z,14.06
2018-11-10T15:30:19.102Z,13.97
2018-11-10T15:32:49.009Z,13.89
2018-11-10T15:35:19.953Z,13.78
2018-11-10T15:37:50.663Z,13.70
2018-11-10T15:40:20.877Z,13.60
2018-11-10T15:42:50.411Z,13.52
2018-11-10T15:45:20.661Z,13.45
2018-11-10T15:47:50.159Z,13.39
2018-11-10T15:50:19.928Z,13.34
2018-11-10T15:52:49.501Z,13.26
2018-11-10T15:55:19.055Z,13.18
2018-11-10T15:57:48.614Z,13.11
2018-11-10T16:00:19.276Z,13.04
2018-11-10T16:02:48.871Z,12.97
2018-11-10T16:05:18.378Z,12.92
2018-11-10T16:07:47.950Z,12.86
2018-11-10T16:10:17.555Z,12.82
2018-11-10T16:12:47.071Z,12.75
2018-11-10T16:15:17.701Z,12.71
2018-11-10T16:17:47.432Z,12.66
2018-11-10T16:20:18.271Z,12.59
2018-11-10T16:22:49.171Z,12.53
2018-11-10T16:25:19.086Z,12.46
2018-11-10T16:27:48.936Z,12.41
2018-11-10T16:30:19.427Z,12.36
2018-11-10T16:32:49.525Z,12.30
2018-11-10T16:35:19.147Z,12.25
2018-11-10T16:37:48.694Z,12.22
2018-11-10T16:40:19.419Z,12.18
2018-11-10T16:42:49.493Z,12.14
2018-11-10T16:45:20.073Z,12.10
2018-11-10T16:47:49.589Z,12.08
2018-11-10T16:50:19.163Z,12.05
2018-11-10T16:52:48.672Z,12.00
2018-11-10T16:55:18.360Z,11.95
2018-11-10T16:57:47.831Z,11.92
2018-11-10T17:00:18.648Z,11.86
2018-11-10T17:02:48.196Z,11.81
2018-11-10T17:05:17.789Z,11.78
2018-11-10T17:07:47.360Z,11.76
2018-11-10T17:10:18.046Z,11.76
2018-11-10T17:12:47.587Z,11.75
2018-11-10T17:15:17.138Z,11.73
2018-11-10T17:17:46.715Z,11.73
2018-11-10T17:20:17.110Z,11.69
2018-11-10T17:22:46.824Z,11.67
2018-11-10T17:25:16.518Z,11.66
2018-11-10T17:27:46.114Z,11.64
2018-11-10T17:30:18.082Z,11.64
2018-11-10T17:32:47.603Z,11.64
2018-11-10T17:35:17.257Z,11.64
2018-11-10T17:37:46.874Z,11.53
2018-11-10T17:40:16.834Z,11.49
2018-11-10T17:42:46.190Z,10.74
2018-11-10T17:45:17.767Z,11.57
2018-11-10T17:47:47.318Z,11.60
2018-11-10T17:50:17.950Z,11.60
2018-11-10T17:52:47.595Z,11.57
2018-11-10T17:55:17.719Z,11.58
2018-11-10T17:57:47.666Z,11.56
2018-11-10T18:00:17.207Z,11.55
2018-11-10T18:02:46.799Z,11.52
2018-11-10T18:05:17.130Z,11.50
2018-11-10T18:07:46.998Z,11.46
2018-11-10T18:10:18.264Z,11.43
2018-11-10T18:12:47.891Z,11.38
2018-11-10T18:15:17.533Z,11.33
2018-11-10T18:17:47.091Z,11.32
2018-11-10T18:20:17.470Z,11.32
2018-11-10T18:22:47.230Z,11.25
2018-11-10T18:25:16.770Z,11.22
2018-11-10T18:27:46.359Z,11.21
2018-11-10T18:30:16.320Z,11.19
2018-11-10T18:32:46.053Z,11.13
2018-11-10T18:35:15.587Z,11.05
2018-11-10T18:37:45.122Z,11.05
2018-11-10T18:40:14.692Z,11.05
2018-11-10T18:42:44.246Z,11.05
2018-11-10T18:45:14.004Z,11.01
2018-11-10T18:47:43.583Z,10.98
2018-11-10T18:50:14.394Z,10.97
2018-11-10T18:52:44.088Z,10.93
2018-11-10T18:55:14.530Z,10.91
2018-11-10T18:57:44.549Z,10.89
2018-11-10T19:00:16.106Z,10.85
2018-11-10T19:02:45.809Z,10.79
2018-11-10T19:05:16.405Z,10.74
2018-11-10T19:07:46.016Z,10.69
2018-11-10T19:10:16.835Z,10.63
2018-11-10T19:12:46.398Z,10.55
2018-11-10T19:15:18.179Z,10.50
2018-11-10T19:17:47.733Z,10.45
2018-11-10T19:20:17.720Z,10.38
2018-11-10T19:22:47.275Z,10.33
2018-11-10T19:25:16.886Z,10.26
2018-11-10T19:27:46.451Z,10.20
2018-11-10T19:30:19.956Z,9.49
2018-11-10T19:32:50.299Z,10.09
2018-11-10T19:35:20.099Z,10.04
2018-11-10T19:37:49.636Z,10.01
2018-11-10T19:40:19.188Z,9.96
2018-11-10T19:42:48.726Z,9.93
2018-11-10T19:45:18.218Z,9.90
2018-11-10T19:47:47.860Z,9.85
2018-11-10T19:50:17.722Z,9.82
2018-11-10T19:52:47.053Z,9.79
2018-11-10T19:55:17.576Z,9.76
2018-11-10T19:57:47.078Z,9.73
2018-11-10T20:00:20.851Z,9.71
2018-11-10T20:02:50.363Z,9.68
2018-11-10T20:05:19.954Z,9.65
2018-11-10T20:07:49.568Z,9.62
2018-11-10T20:10:19.133Z,9.60
2018-11-10T20:12:48.813Z,9.58
2018-11-10T20:15:18.669Z,9.55
2018-11-10T20:17:48.205Z,9.57
2018-11-10T20:20:18.698Z,9.55
2018-11-10T20:22:48.330Z,9.52
2018-11-10T20:25:18.896Z,9.50
2018-11-10T20:27:48.470Z,9.47
2018-11-10T20:30:19.387Z,9.46
2018-11-10T20:32:49.065Z,9.44
2018-11-10T20:35:18.603Z,9.44
2018-11-10T20:37:48.312Z,9.43
2018-11-10T20:40:18.070Z,9.41
2018-11-10T20:42:47.587Z,9.39
2018-11-10T20:45:19.708Z,9.35
2018-11-10T20:47:49.281Z,9.32
2018-11-10T20:50:19.155Z,9.31
2018-11-10T20:52:48.685Z,9.29
2018-11-10T20:55:18.227Z,9.23
2018-11-10T20:57:47.738Z,9.22
2018-11-10T21:00:19.854Z,9.20
2018-11-10T21:02:49.315Z,9.17
2018-11-10T21:05:18.996Z,9.16
2018-11-10T21:07:48.565Z,9.12
2018-11-10T21:10:19.263Z,9.12
2018-11-10T21:12:49.626Z,9.13
2018-11-10T21:15:19.718Z,9.13
2018-11-10T21:17:49.334Z,9.10
2018-11-10T21:20:19.035Z,9.07
2018-11-10T21:22:48.511Z,9.04
2018-11-10T21:25:18.564Z,9.00
2018-11-10T21:27:48.445Z,9.02
2018-11-10T21:30:19.230Z,8.99
2018-11-10T21:32:49.091Z,8.98
2018-11-10T21:35:18.702Z,8.97
2018-11-10T21:37:48.225Z,8.96
2018-11-10T21:40:19.003Z,8.92
2018-11-10T21:42:48.537Z,8.76
2018-11-10T21:45:18.533Z,8.84
2018-11-10T21:47:48.047Z,8.85
2018-11-10T21:50:18.897Z,8.74
2018-11-10T21:52:48.440Z,8.78
2018-11-10T21:55:19.153Z,8.71
2018-11-10T21:57:49.375Z,8.69
2018-11-10T22:00:20.383Z,8.75
2018-11-10T22:02:50.289Z,8.74
2018-11-10T22:05:20.078Z,8.72
2018-11-10T22:07:49.643Z,8.72
2018-11-10T22:10:19.753Z,8.71
2018-11-10T22:12:49.333Z,8.77
2018-11-10T22:15:20.887Z,8.78
2018-11-10T22:17:50.586Z,8.80
2018-11-10T22:20:21.542Z,8.80
2018-11-10T22:22:51.126Z,8.80
2018-11-10T22:25:20.680Z,8.79
2018-11-10T22:27:51.605Z,8.82
2018-11-10T22:30:21.928Z,8.80
2018-11-10T22:32:51.740Z,8.81
2018-11-10T22:35:21.262Z,8.82
2018-11-10T22:37:50.796Z,8.84
2018-11-10T22:40:21.446Z,8.87
2018-11-10T22:42:50.988Z,8.77
2018-11-10T22:45:21.608Z,8.79
2018-11-10T22:47:51.710Z,8.71
2018-11-10T22:50:22.654Z,8.61
2018-11-10T22:52:52.198Z,8.61
2018-11-10T22:55:21.729Z,8.65
2018-11-10T22:57:51.274Z,8.67
2018-11-10T23:00:27.906Z,8.65
2018-11-10T23:02:58.791Z,8.66
2018-11-10T23:05:28.354Z,8.68
2018-11-10T23:07:57.922Z,8.70
2018-11-10T23:10:27.473Z,8.71
2018-11-10T23:12:57.047Z,8.73
2018-11-10T23:15:26.561Z,8.75
2018-11-10T23:17:56.119Z,8.78
2018-11-10T23:20:25.634Z,8.78
2018-11-10T23:22:55.233Z,8.79
2018-11-10T23:25:24.780Z,8.79
2018-11-10T23:27:54.315Z,8.78
2018-11-10T23:30:24.276Z,8.79
2018-11-10T23:32:53.779Z,8.79
2018-11-10T23:35:23.308Z,8.78
2018-11-10T23:37:52.847Z,8.77
2018-11-10T23:40:22.391Z,8.76
2018-11-10T23:42:51.958Z,8.74
2018-11-10T23:45:21.519Z,8.71
2018-11-10T23:47:51.012Z,8.69
2018-11-10T23:50:20.534Z,8.64
2018-11-10T23:52:50.054Z,8.61
2018-11-10T23:55:19.596Z,8.52
2018-11-10T23:57:49.182Z,8.47
